Purki — 9HA2386 — position and weather

sailwx.info

Track history (hours):
 
Tides and Currents Weather Stations Pressure Air Temp Water Temp Dewpoint Dewpoint Depression Visibility Wind Speed Wind Dir Waves Ship Positions

Purki

Last reported at 2017-Aug-16 06:05 UTC. Time now 2017-Aug-19 22:35 UTC.
Position N 36°56' E 007°48'.

Length 146 m; draft 7.2 m.

Type: Cargo ship. MMSI: 248495000.

Date/timePositionNaut miles runAvg speedWind from/ knotsBaromVisibWave heightAir tempDewpointWater temp
2017-Aug-16 06:05N 36°56' E 007°48'0 0.0
2017-Aug-16 05:47N 36°56' E 007°48'1 3.3
2017-Aug-16 05:29N 36°55' E 007°49'611.8
2017-Aug-16 05:00N 36°57' E 007°56'613.3
2017-Aug-16 04:30N 36°59' E 008°03'713.3
2017-Aug-16 04:00N 37°02' E 008°11'613.2
2017-Aug-16 03:31N 37°04' E 008°19'713.3
2017-Aug-16 03:01N 37°06' E 008°26'713.2
2017-Aug-16 02:31N 37°09' E 008°34'713.1
2017-Aug-16 02:00N 37°11' E 008°42'613.0
2017-Aug-16 01:30N 37°14' E 008°49'613.1
2017-Aug-16 01:01N 37°16' E 008°57'713.0
2017-Aug-16 00:30N 37°19' E 009°04'713.1
2017-Aug-16 00:00N 37°21' E 009°12'713.4
2017-Aug-15 23:30N 37°24' E 009°20'713.9
2017-Aug-15 23:00N 37°26' E 009°28'713.8
2017-Aug-15 22:31N 37°28' E 009°36'713.5
2017-Aug-15 22:00N 37°31' E 009°44'613.2
2017-Aug-15 21:31N 37°33' E 009°52'713.0
2017-Aug-15 21:01N 37°36' E 009°59'612.8
2017-Aug-15 20:30N 37°38' E 010°07'713.2
2017-Aug-15 20:01N 37°37' E 010°15'713.2
2017-Aug-15 19:30N 37°36' E 010°24'713.3
2017-Aug-15 19:00N 37°34' E 010°32'713.2
2017-Aug-15 18:30N 37°32' E 010°40'713.2
2017-Aug-15 18:00N 37°31' E 010°48'613.2
2017-Aug-15 17:30N 37°29' E 010°56'713.4
2017-Aug-15 17:01N 37°27' E 011°04'713.4
2017-Aug-15 16:31N 37°26' E 011°12'713.6
2017-Aug-15 16:00N 37°24' E 011°20'713.6
2017-Aug-15 15:31N 37°22' E 011°29'713.6
2017-Aug-15 15:00N 37°20' E 011°37'713.6
2017-Aug-15 14:31N 37°19' E 011°45'713.6
2017-Aug-15 14:00N 37°17' E 011°54'713.4
2017-Aug-15 13:30N 37°16' E 012°02'612.8
2017-Aug-15 13:00N 37°14' E 012°10'612.4
2017-Aug-15 12:31N 37°12' E 012°17'612.2
2017-Aug-15 12:00N 37°11' E 012°25'612.2
2017-Aug-15 11:31N 37°09' E 012°32'612.2
2017-Aug-15 11:00N 37°07' E 012°39'612.3
2017-Aug-15 10:30N 37°05' E 012°47'612.3
2017-Aug-15 10:00N 37°03' E 012°54'612.3
2017-Aug-15 09:31N 37°02' E 013°01'612.4
2017-Aug-15 09:00N 36°60' E 013°09'612.4
2017-Aug-15 08:30N 36°58' E 013°16'612.4
2017-Aug-15 08:00N 36°56' E 013°24'612.2
2017-Aug-15 07:30N 36°54' E 013°31'612.2
2017-Aug-15 07:01N 36°53' E 013°38'612.0
2017-Aug-15 06:30N 36°51' E 013°45'612.1
2017-Aug-15 06:01N 36°49' E 013°52'612.3
2017-Aug-15 05:30N 36°47' E 013°60'612.4
2017-Aug-15 05:00N 36°45' E 014°07'612.0
2017-Aug-15 04:30N 36°44' E 014°14'611.7
2017-Aug-15 04:00N 36°42' E 014°21'611.9
2017-Aug-15 03:30N 36°40' E 014°28'611.7
2017-Aug-15 03:01N 36°38' E 014°35'612.5
2017-Aug-15 02:30N 36°36' E 014°43'713.3
2017-Aug-15 02:01N 36°36' E 014°51'713.7
2017-Aug-15 01:29N 36°36' E 014°60'613.6
2017-Aug-15 01:01N 36°35' E 015°08'713.2
2017-Aug-15 00:27N 36°35' E 015°17'913.3
2017-Aug-14 23:48N 36°35' E 015°28'413.5
2017-Aug-14 23:31N 36°35' E 015°33'39011.7
2017-Aug-13 14:16N 36°59' E 023°39'313.3
2017-Aug-13 14:00N 37°02' E 023°40'713.3
2017-Aug-13 13:31N 37°08' E 023°44'713.5
2017-Aug-13 12:59N 37°14' E 023°49'913.3
2017-Aug-13 12:21N 37°21' E 023°55'513.3
2017-Aug-13 11:57N 37°25' E 023°58'813.7
2017-Aug-13 11:22N 37°32' E 024°04'613.1
2017-Aug-13 10:54N 37°37' E 024°08'913.2
2017-Aug-13 10:15N 37°44' E 024°15'412.9
2017-Aug-13 09:56N 37°46' E 024°19'1213.3
2017-Aug-13 09:02N 37°54' E 024°31'12113.6
2017-Aug-13 00:10N 39°40' E 025°43'613.7
2017-Aug-12 23:43N 39°46' E 025°47'414.5
2017-Aug-12 23:26N 39°50' E 025°49'614.5
2017-Aug-12 23:00N 39°56' E 025°52'1413.5
2017-Aug-12 21:56N 40°01' E 026°09'  
2017-Aug-09 00:31N 40°25' E 029°05'0 0.1
2017-Aug-09 00:25N 40°25' E 029°05'0 0.0
2017-Aug-08 20:49N 40°25' E 029°05'0 0.0
2017-Aug-08 20:25N 40°25' E 029°05'0 0.0
2017-Aug-08 19:55N 40°25' E 029°05'0 0.5
2017-Aug-08 19:30N 40°25' E 029°04'220 5.6
2017-Aug-07 04:07N 37°50' E 025°43'213.4
2017-Aug-07 04:00N 37°49' E 025°41'713.1
2017-Aug-07 03:30N 37°45' E 025°35'612.8
2017-Aug-07 03:00N 37°40' E 025°29'612.1
2017-Aug-07 02:30N 37°36' E 025°24'611.6
2017-Aug-07 02:00N 37°32' E 025°19'611.6
2017-Aug-07 01:30N 37°28' E 025°12'611.6
2017-Aug-07 01:00N 37°25' E 025°06'611.6
2017-Aug-07 00:30N 37°22' E 025°00'611.9
2017-Aug-07 00:00N 37°18' E 024°54'612.5
2017-Aug-06 23:30N 37°14' E 024°48'14012.4
2017-Aug-06 12:14N 36°22' E 022°06'313.6
2017-Aug-06 12:00N 36°22' E 022°02'713.7
2017-Aug-06 11:30N 36°22' E 021°54'713.8
2017-Aug-06 11:00N 36°22' E 021°45'713.7
2017-Aug-06 10:30N 36°22' E 021°37'713.5
2017-Aug-06 10:00N 36°23' E 021°28'1613.2
2017-Aug-06 08:49N 36°23' E 021°09'412.9
2017-Aug-06 08:30N 36°23' E 021°04'1212.9
2017-Aug-06 07:36N 36°24' E 020°50'213.1
2017-Aug-06 07:28N 36°24' E 020°48'  
Track history (hours):
 
Tides and Currents Weather Stations Pressure Air Temp Water Temp Dewpoint Dewpoint Depression Visibility Wind Speed Wind Dir Waves Ship Positions

Purki

Last reported at 2017-Aug-16 06:05 UTC. Time now 2017-Aug-19 22:35 UTC.
Position N 36°56' E 007°48'.

Length 146 m; draft 7.2 m.

Type: Cargo ship. MMSI: 248495000.

Date/timePositionNaut miles runAvg speedWind from/ knotsBaromVisibWave heightAir tempDewpointWater temp
2017-Aug-16 06:05N 36°56' E 007°48'0 0.0
2017-Aug-16 05:47N 36°56' E 007°48'1 3.3
2017-Aug-16 05:29N 36°55' E 007°49'611.8
2017-Aug-16 05:00N 36°57' E 007°56'613.3
2017-Aug-16 04:30N 36°59' E 008°03'713.3
2017-Aug-16 04:00N 37°02' E 008°11'613.2
2017-Aug-16 03:31N 37°04' E 008°19'713.3
2017-Aug-16 03:01N 37°06' E 008°26'713.2
2017-Aug-16 02:31N 37°09' E 008°34'713.1
2017-Aug-16 02:00N 37°11' E 008°42'613.0
2017-Aug-16 01:30N 37°14' E 008°49'613.1
2017-Aug-16 01:01N 37°16' E 008°57'713.0
2017-Aug-16 00:30N 37°19' E 009°04'713.1
2017-Aug-16 00:00N 37°21' E 009°12'713.4
2017-Aug-15 23:30N 37°24' E 009°20'713.9
2017-Aug-15 23:00N 37°26' E 009°28'713.8
2017-Aug-15 22:31N 37°28' E 009°36'713.5
2017-Aug-15 22:00N 37°31' E 009°44'613.2
2017-Aug-15 21:31N 37°33' E 009°52'713.0
2017-Aug-15 21:01N 37°36' E 009°59'612.8
2017-Aug-15 20:30N 37°38' E 010°07'713.2
2017-Aug-15 20:01N 37°37' E 010°15'713.2
2017-Aug-15 19:30N 37°36' E 010°24'713.3
2017-Aug-15 19:00N 37°34' E 010°32'713.2
2017-Aug-15 18:30N 37°32' E 010°40'713.2
2017-Aug-15 18:00N 37°31' E 010°48'613.2
2017-Aug-15 17:30N 37°29' E 010°56'713.4
2017-Aug-15 17:01N 37°27' E 011°04'713.4
2017-Aug-15 16:31N 37°26' E 011°12'713.6
2017-Aug-15 16:00N 37°24' E 011°20'713.6
2017-Aug-15 15:31N 37°22' E 011°29'713.6
2017-Aug-15 15:00N 37°20' E 011°37'713.6
2017-Aug-15 14:31N 37°19' E 011°45'713.6
2017-Aug-15 14:00N 37°17' E 011°54'713.4
2017-Aug-15 13:30N 37°16' E 012°02'612.8
2017-Aug-15 13:00N 37°14' E 012°10'612.4
2017-Aug-15 12:31N 37°12' E 012°17'612.2
2017-Aug-15 12:00N 37°11' E 012°25'612.2
2017-Aug-15 11:31N 37°09' E 012°32'612.2
2017-Aug-15 11:00N 37°07' E 012°39'612.3
2017-Aug-15 10:30N 37°05' E 012°47'612.3
2017-Aug-15 10:00N 37°03' E 012°54'612.3
2017-Aug-15 09:31N 37°02' E 013°01'612.4
2017-Aug-15 09:00N 36°60' E 013°09'612.4
2017-Aug-15 08:30N 36°58' E 013°16'612.4
2017-Aug-15 08:00N 36°56' E 013°24'612.2
2017-Aug-15 07:30N 36°54' E 013°31'612.2
2017-Aug-15 07:01N 36°53' E 013°38'612.0
2017-Aug-15 06:30N 36°51' E 013°45'612.1
2017-Aug-15 06:01N 36°49' E 013°52'612.3
2017-Aug-15 05:30N 36°47' E 013°60'612.4
2017-Aug-15 05:00N 36°45' E 014°07'612.0
2017-Aug-15 04:30N 36°44' E 014°14'611.7
2017-Aug-15 04:00N 36°42' E 014°21'611.9
2017-Aug-15 03:30N 36°40' E 014°28'611.7
2017-Aug-15 03:01N 36°38' E 014°35'612.5
2017-Aug-15 02:30N 36°36' E 014°43'713.3
2017-Aug-15 02:01N 36°36' E 014°51'713.7
2017-Aug-15 01:29N 36°36' E 014°60'613.6
2017-Aug-15 01:01N 36°35' E 015°08'713.2
2017-Aug-15 00:27N 36°35' E 015°17'913.3
2017-Aug-14 23:48N 36°35' E 015°28'413.5
2017-Aug-14 23:31N 36°35' E 015°33'39011.7
2017-Aug-13 14:16N 36°59' E 023°39'313.3
2017-Aug-13 14:00N 37°02' E 023°40'713.3
2017-Aug-13 13:31N 37°08' E 023°44'713.5
2017-Aug-13 12:59N 37°14' E 023°49'913.3
2017-Aug-13 12:21N 37°21' E 023°55'513.3
2017-Aug-13 11:57N 37°25' E 023°58'813.7
2017-Aug-13 11:22N 37°32' E 024°04'613.1
2017-Aug-13 10:54N 37°37' E 024°08'913.2
2017-Aug-13 10:15N 37°44' E 024°15'412.9
2017-Aug-13 09:56N 37°46' E 024°19'1213.3
2017-Aug-13 09:02N 37°54' E 024°31'12113.6
2017-Aug-13 00:10N 39°40' E 025°43'613.7
2017-Aug-12 23:43N 39°46' E 025°47'414.5
2017-Aug-12 23:26N 39°50' E 025°49'614.5
2017-Aug-12 23:00N 39°56' E 025°52'1413.5
2017-Aug-12 21:56N 40°01' E 026°09'  
2017-Aug-09 00:31N 40°25' E 029°05'0 0.1
2017-Aug-09 00:25N 40°25' E 029°05'0 0.0
2017-Aug-08 20:49N 40°25' E 029°05'0 0.0
2017-Aug-08 20:25N 40°25' E 029°05'0 0.0
2017-Aug-08 19:55N 40°25' E 029°05'0 0.5
2017-Aug-08 19:30N 40°25' E 029°04'220 5.6
2017-Aug-07 04:07N 37°50' E 025°43'213.4
2017-Aug-07 04:00N 37°49' E 025°41'713.1
2017-Aug-07 03:30N 37°45' E 025°35'612.8
2017-Aug-07 03:00N 37°40' E 025°29'612.1
2017-Aug-07 02:30N 37°36' E 025°24'611.6
2017-Aug-07 02:00N 37°32' E 025°19'611.6
2017-Aug-07 01:30N 37°28' E 025°12'611.6
2017-Aug-07 01:00N 37°25' E 025°06'611.6
2017-Aug-07 00:30N 37°22' E 025°00'611.9
2017-Aug-07 00:00N 37°18' E 024°54'612.5
2017-Aug-06 23:30N 37°14' E 024°48'14012.4
2017-Aug-06 12:14N 36°22' E 022°06'313.6
2017-Aug-06 12:00N 36°22' E 022°02'713.7
2017-Aug-06 11:30N 36°22' E 021°54'713.8
2017-Aug-06 11:00N 36°22' E 021°45'713.7
2017-Aug-06 10:30N 36°22' E 021°37'713.5
2017-Aug-06 10:00N 36°23' E 021°28'1613.2
2017-Aug-06 08:49N 36°23' E 021°09'412.9
2017-Aug-06 08:30N 36°23' E 021°04'1212.9
2017-Aug-06 07:36N 36°24' E 020°50'213.1
2017-Aug-06 07:28N 36°24' E 020°48'  

Dump ship's entire track history